メインページ
METAR-TAF:

METAR-TAF

空港 :

フォートマクマレー空港

フォートマクマレー, アルバータ州, カナダ

緯度: 56-39N, 経度: 111-13W, 海抜: 369m

現時点の気象観測

当レポートは32分前の17:00(UTC)に作成
無風
気温 19°C
湿度 64%
気圧 1015 hPa
視程: 14.5km
晴天

METAR: CYMM 161700Z AUTO 00000KT 9SM CLR 19/12 A2996 RMK SLP154 DENSITY ALT 1900FT

時間: 11:32 (17:32 UTC)

予報

当レポートは4時間54分前の12:38(UTC)に作成
予報は16日の 13時(UTC)から 17日の 01時(UTC)まで有効
西/南西の風 8kt
視程: 10km
高度6000ftの雲はほとんどない
16日の 16時(UTC)から 16日の 18時(UTC)まで徐々に
北西の風 5kt
16日の 2200時(UTC)から
の風 8kt
視程: 10km
高度6000ftの雲は散在している

TAF: CYMM 161238Z 1613/1701 25008KT P6SM FEW060 BECMG 1616/1618 32005KT FM162200 35008KT P6SM SCT060 RMK FCST BASED ON AUTO OBS. NXT FCST BY 161900Z

4,000以上の空港の気象観測と天気予報(METAR報とTAF報)

利用可能な観測所は地図上に黄色い丸と赤い丸で示す。

丸の上にカーソルを重ねると観測所名を参照できる。

次にクリックすると気象観測と天気予報を参照できる。

マップの切り替え:黒色「×」印の緑ボタンをクリックして拡大、「-」印の緑ボタンをクリックして縮小、緑色の三角印をクリックして隣りの地図に切り替え


METAR-TAF: